createdAt,value
2023-03-17T00:01:54.834Z,2.53
2023-03-17T00:04:26.972Z,2.27
2023-03-17T00:06:55.108Z,2.20
2023-03-17T00:09:22.765Z,2.20
2023-03-17T00:11:50.265Z,1.83
2023-03-17T00:14:18.175Z,2.80
2023-03-17T00:16:50.194Z,2.40
2023-03-17T00:19:32.522Z,2.20
2023-03-17T00:22:01.442Z,2.10
2023-03-17T00:24:28.997Z,2.53
2023-03-17T00:26:56.273Z,2.30
2023-03-17T00:29:24.366Z,3.17
2023-03-17T00:31:51.431Z,2.93
2023-03-17T00:34:19.592Z,2.13
2023-03-17T00:36:48.655Z,2.50
2023-03-17T00:41:43.813Z,2.30
2023-03-17T00:44:12.042Z,2.77
2023-03-17T00:46:39.660Z,2.20
2023-03-17T00:49:22.260Z,2.37
2023-03-17T00:51:50.828Z,2.50
2023-03-17T00:54:20.808Z,2.30
2023-03-17T00:56:50.052Z,2.03
2023-03-17T00:59:26.265Z,2.00
2023-03-17T01:01:53.810Z,2.13
2023-03-17T01:04:21.086Z,2.60
2023-03-17T01:06:49.679Z,2.77
2023-03-17T01:09:18.671Z,2.50
2023-03-17T01:11:46.167Z,2.60
2023-03-17T01:14:13.623Z,2.60
2023-03-17T01:16:41.225Z,2.57
2023-03-17T01:19:11.664Z,2.60
2023-03-17T01:21:38.823Z,2.70
2023-03-17T01:24:06.600Z,2.23
2023-03-17T01:26:33.783Z,2.77
2023-03-17T01:29:00.985Z,2.47
2023-03-17T01:31:28.169Z,2.50
2023-03-17T01:33:55.154Z,2.23
2023-03-17T01:36:22.246Z,2.23
2023-03-17T01:38:51.153Z,2.57
2023-03-17T01:41:20.907Z,1.93
2023-03-17T01:43:48.347Z,3.17
2023-03-17T01:46:18.511Z,2.83
2023-03-17T01:49:08.060Z,2.80
2023-03-17T01:51:57.809Z,2.57
2023-03-17T01:54:35.916Z,3.13
2023-03-17T01:57:11.981Z,2.07
2023-03-17T01:59:43.953Z,2.40
2023-03-17T02:02:18.176Z,2.50
2023-03-17T02:04:45.272Z,2.43
2023-03-17T02:07:13.736Z,2.07
2023-03-17T02:09:40.857Z,2.40
2023-03-17T02:12:09.451Z,2.37
2023-03-17T02:14:39.975Z,1.90
2023-03-17T02:17:07.837Z,2.33
2023-03-17T02:19:35.359Z,2.83
2023-03-17T02:22:02.745Z,2.27
2023-03-17T02:24:45.014Z,2.23
2023-03-17T02:27:24.085Z,1.90
2023-03-17T02:29:52.368Z,1.93
2023-03-17T02:32:20.539Z,2.63
2023-03-17T02:34:48.603Z,2.23
2023-03-17T02:37:17.896Z,2.17
2023-03-17T02:39:45.577Z,2.43
2023-03-17T02:42:14.180Z,1.83
2023-03-17T02:44:41.344Z,1.70
2023-03-17T02:47:08.794Z,1.77
2023-03-17T02:49:37.592Z,2.33
2023-03-17T02:52:08.277Z,1.57
2023-03-17T02:54:36.113Z,1.40
2023-03-17T02:57:03.347Z,1.83
2023-03-17T02:59:30.407Z,1.60
2023-03-17T03:01:57.636Z,2.10
2023-03-17T03:04:24.712Z,2.50
2023-03-17T03:06:52.628Z,1.30
2023-03-17T03:09:20.285Z,1.43
2023-03-17T03:11:48.114Z,1.70
2023-03-17T03:14:15.247Z,1.77
2023-03-17T03:16:43.594Z,1.90
2023-03-17T03:19:11.135Z,1.50
2023-03-17T03:21:38.177Z,1.30
2023-03-17T03:24:06.561Z,1.33
2023-03-17T03:26:33.614Z,1.60
2023-03-17T03:29:04.578Z,1.60
2023-03-17T03:31:31.883Z,1.80
2023-03-17T03:33:59.022Z,1.73
2023-03-17T03:36:27.043Z,1.70
2023-03-17T03:38:54.145Z,1.37
2023-03-17T03:41:21.441Z,1.50
2023-03-17T03:43:48.688Z,2.10
2023-03-17T03:46:15.970Z,1.50
2023-03-17T03:48:42.939Z,1.57
2023-03-17T03:51:10.286Z,1.53
2023-03-17T03:53:37.312Z,1.77
2023-03-17T03:56:04.745Z,1.20
2023-03-17T03:58:31.933Z,2.13
2023-03-17T04:00:58.948Z,1.50
2023-03-17T04:03:26.038Z,1.50
2023-03-17T04:05:53.183Z,1.57
2023-03-17T04:08:20.321Z,1.37
2023-03-17T04:10:47.695Z,1.47
2023-03-17T04:13:15.594Z,1.57
2023-03-17T04:15:42.814Z,1.10
2023-03-17T04:18:09.849Z,2.27
2023-03-17T04:20:36.985Z,1.23
2023-03-17T04:23:04.279Z,1.43
2023-03-17T04:25:31.636Z,1.10
2023-03-17T04:27:58.697Z,1.60
2023-03-17T04:30:26.522Z,0.90
2023-03-17T04:32:53.519Z,1.50
2023-03-17T04:35:22.728Z,1.53
2023-03-17T04:37:50.186Z,1.87
2023-03-17T04:40:18.589Z,1.43
2023-03-17T04:42:46.129Z,1.27
2023-03-17T04:45:17.414Z,1.20
2023-03-17T04:47:46.296Z,1.40
2023-03-17T04:50:16.612Z,1.30
2023-03-17T04:52:43.842Z,1.40
2023-03-17T04:55:12.244Z,1.33
2023-03-17T04:57:39.589Z,2.43
2023-03-17T05:00:08.187Z,2.00
2023-03-17T05:02:35.594Z,1.57
2023-03-17T05:05:03.535Z,1.70
2023-03-17T05:07:32.834Z,1.53
2023-03-17T05:10:05.647Z,1.70
2023-03-17T05:12:32.751Z,1.10
2023-03-17T05:14:59.816Z,1.70
2023-03-17T05:17:27.131Z,0.97
2023-03-17T05:19:54.116Z,1.50
2023-03-17T05:22:21.251Z,1.40
2023-03-17T05:24:48.530Z,1.67
2023-03-17T05:27:15.748Z,1.60
2023-03-17T05:29:43.209Z,3.07
2023-03-17T05:32:10.559Z,1.13
2023-03-17T05:34:37.584Z,2.50
2023-03-17T05:37:04.936Z,1.10
2023-03-17T05:39:33.003Z,1.10
2023-03-17T05:41:59.981Z,0.90
2023-03-17T05:44:26.941Z,1.10
2023-03-17T05:46:55.532Z,1.17
2023-03-17T05:49:22.737Z,1.30
2023-03-17T05:51:50.030Z,0.97
2023-03-17T05:54:17.249Z,0.90
2023-03-17T05:56:44.613Z,1.03
2023-03-17T05:59:15.014Z,1.07
2023-03-17T06:01:42.640Z,0.90
2023-03-17T06:04:09.958Z,1.30
2023-03-17T06:06:37.240Z,1.10
2023-03-17T06:09:04.764Z,0.80
2023-03-17T06:11:32.015Z,0.80
2023-03-17T06:13:59.132Z,1.20
2023-03-17T06:16:29.096Z,0.80
2023-03-17T06:18:56.947Z,1.00
2023-03-17T06:21:24.001Z,1.03
2023-03-17T06:23:51.372Z,1.00
2023-03-17T06:26:18.397Z,1.40
2023-03-17T06:28:45.699Z,1.03
2023-03-17T06:31:13.053Z,0.93
2023-03-17T06:33:40.381Z,0.90
2023-03-17T06:36:08.334Z,1.20
2023-03-17T06:38:35.581Z,1.17
2023-03-17T06:41:03.469Z,1.30
2023-03-17T06:43:31.632Z,1.50
2023-03-17T06:45:59.144Z,1.20
2023-03-17T06:48:26.232Z,1.10
2023-03-17T06:50:53.348Z,1.10
2023-03-17T06:53:21.015Z,1.20
2023-03-17T06:55:48.567Z,1.10
2023-03-17T06:58:16.183Z,0.90
2023-03-17T07:00:45.627Z,1.10
2023-03-17T07:03:12.974Z,1.20
2023-03-17T07:05:40.402Z,1.03
2023-03-17T07:08:08.398Z,0.73
2023-03-17T07:10:36.792Z,0.97
2023-03-17T07:13:06.148Z,0.77
2023-03-17T07:15:35.213Z,1.40
2023-03-17T07:18:02.586Z,1.00
2023-03-17T07:20:29.772Z,0.83
2023-03-17T07:22:57.454Z,1.30
2023-03-17T07:25:24.928Z,0.93
2023-03-17T07:27:52.166Z,0.87
2023-03-17T07:30:20.149Z,1.13
2023-03-17T07:32:47.993Z,1.10
2023-03-17T07:35:16.322Z,0.80
2023-03-17T07:37:44.496Z,1.10
2023-03-17T07:40:12.918Z,1.30
2023-03-17T07:42:40.099Z,0.83
2023-03-17T07:45:08.189Z,1.10
2023-03-17T07:47:35.320Z,0.90
2023-03-17T07:50:02.496Z,1.00
2023-03-17T07:52:29.763Z,1.30
2023-03-17T07:54:58.351Z,1.33
2023-03-17T07:57:25.545Z,1.00
2023-03-17T07:59:52.912Z,1.57
2023-03-17T08:02:21.316Z,1.43
2023-03-17T08:04:48.828Z,1.20
2023-03-17T08:07:16.247Z,1.17
2023-03-17T08:09:43.555Z,0.80
2023-03-17T08:12:11.286Z,1.00
2023-03-17T08:14:38.586Z,1.50
2023-03-17T08:17:06.483Z,1.60
2023-03-17T08:19:33.585Z,1.80
2023-03-17T08:22:01.992Z,1.60
2023-03-17T08:24:29.580Z,2.30
2023-03-17T08:26:58.123Z,1.20
2023-03-17T08:29:26.859Z,1.90
2023-03-17T08:31:53.975Z,1.37
2023-03-17T08:34:21.136Z,1.60
2023-03-17T08:36:48.230Z,1.30
2023-03-17T08:39:15.298Z,1.47
2023-03-17T08:41:42.513Z,1.30
2023-03-17T08:44:10.362Z,1.57
2023-03-17T08:46:37.854Z,1.57
2023-03-17T08:49:04.912Z,1.30
2023-03-17T08:51:36.202Z,2.27
2023-03-17T08:54:05.202Z,1.07
2023-03-17T08:56:33.580Z,1.27
2023-03-17T08:59:00.727Z,1.73
2023-03-17T09:01:28.178Z,1.17
2023-03-17T09:03:56.395Z,1.60
2023-03-17T09:06:25.862Z,1.60
2023-03-17T09:08:55.721Z,1.40
2023-03-17T09:11:28.381Z,1.10
2023-03-17T09:13:56.677Z,1.50
2023-03-17T09:16:24.464Z,1.17
2023-03-17T09:18:51.595Z,1.60
2023-03-17T09:21:18.908Z,1.33
2023-03-17T09:23:46.800Z,1.47
2023-03-17T09:26:13.962Z,1.20
2023-03-17T09:28:41.277Z,1.60
2023-03-17T09:31:12.265Z,1.17
2023-03-17T09:33:40.953Z,1.30
2023-03-17T09:36:09.714Z,1.90
2023-03-17T09:38:37.389Z,1.00
2023-03-17T09:41:33.827Z,1.37
2023-03-17T09:44:31.545Z,1.30
2023-03-17T09:47:17.560Z,1.13
2023-03-17T09:50:01.291Z,1.30
2023-03-17T09:52:34.080Z,2.17
2023-03-17T09:55:05.343Z,1.73
2023-03-17T09:57:37.170Z,1.20
2023-03-17T10:00:14.705Z,1.20
2023-03-17T10:02:43.335Z,1.57
2023-03-17T10:05:19.824Z,1.00
2023-03-17T10:08:02.822Z,2.13
2023-03-17T10:10:32.960Z,0.80
2023-03-17T10:13:18.120Z,1.90
2023-03-17T10:15:51.712Z,0.83
2023-03-17T10:18:23.364Z,1.17
2023-03-17T10:21:02.512Z,0.93
2023-03-17T10:23:34.091Z,1.83
2023-03-17T10:26:31.808Z,1.00
2023-03-17T10:29:04.083Z,1.10
2023-03-17T10:31:34.804Z,1.00
2023-03-17T10:34:14.325Z,1.33
2023-03-17T10:36:45.732Z,0.90
2023-03-17T10:39:17.876Z,1.00
2023-03-17T10:42:00.547Z,1.00
2023-03-17T10:44:44.727Z,1.20
2023-03-17T10:47:30.218Z,1.57
2023-03-17T10:50:00.427Z,1.23
2023-03-17T10:52:30.578Z,1.20
2023-03-17T10:55:05.908Z,1.40
2023-03-17T10:57:37.594Z,1.13
2023-03-17T11:00:18.215Z,0.70
2023-03-17T11:02:49.654Z,1.80
2023-03-17T11:05:26.749Z,0.80
2023-03-17T11:08:17.217Z,1.20
2023-03-17T11:10:45.098Z,1.40
2023-03-17T11:13:17.443Z,1.30
2023-03-17T11:15:53.392Z,0.93
2023-03-17T11:18:26.428Z,2.20
2023-03-17T11:21:10.153Z,1.13
2023-03-17T11:23:43.050Z,1.77
2023-03-17T11:26:28.022Z,1.10
2023-03-17T11:29:14.342Z,1.03
2023-03-17T11:32:05.272Z,1.07
2023-03-17T11:34:35.243Z,2.37
2023-03-17T11:37:10.306Z,1.57
2023-03-17T11:39:51.195Z,1.43
2023-03-17T11:42:27.740Z,1.00
2023-03-17T11:44:57.785Z,0.67
2023-03-17T11:47:46.574Z,1.00
2023-03-17T11:50:22.617Z,1.30
2023-03-17T11:52:52.865Z,1.77
2023-03-17T11:55:23.393Z,2.00
2023-03-17T11:57:57.842Z,0.93
2023-03-17T12:00:38.683Z,1.27
2023-03-17T12:03:26.842Z,0.93
2023-03-17T12:06:00.012Z,1.43
2023-03-17T12:08:46.135Z,1.57
2023-03-17T12:11:18.397Z,1.73
2023-03-17T12:14:06.217Z,1.17
2023-03-17T12:16:47.074Z,1.20
2023-03-17T12:19:20.067Z,2.20
2023-03-17T12:21:59.367Z,1.27
2023-03-17T12:24:35.732Z,1.13
2023-03-17T12:27:02.839Z,1.43
2023-03-17T12:29:50.360Z,2.23
2023-03-17T12:32:22.211Z,4.17
2023-03-17T12:34:57.419Z,1.53
2023-03-17T12:37:27.805Z,1.60
2023-03-17T12:39:59.126Z,1.00
2023-03-17T12:42:32.693Z,1.40
2023-03-17T12:45:11.670Z,1.63
2023-03-17T12:48:01.174Z,0.90
2023-03-17T12:51:11.179Z,1.50
2023-03-17T12:53:51.326Z,1.20
2023-03-17T12:56:27.678Z,1.70
2023-03-17T12:59:02.115Z,1.33
2023-03-17T13:01:37.628Z,1.27
2023-03-17T13:04:28.059Z,1.50
2023-03-17T13:07:02.697Z,1.67
2023-03-17T13:09:37.850Z,1.90
2023-03-17T13:12:07.228Z,2.33
2023-03-17T13:14:46.474Z,1.50
2023-03-17T13:17:30.693Z,1.20
2023-03-17T13:20:10.481Z,1.60
2023-03-17T13:23:04.442Z,2.13
2023-03-17T13:25:38.502Z,2.20
2023-03-17T13:28:19.041Z,2.40
2023-03-17T13:30:55.214Z,2.80
2023-03-17T13:33:27.477Z,1.57
2023-03-17T13:36:17.404Z,1.63
2023-03-17T13:39:15.119Z,1.50
2023-03-17T13:41:43.510Z,1.87
2023-03-17T13:44:40.938Z,2.30
2023-03-17T13:47:23.493Z,2.10
2023-03-17T13:49:53.193Z,1.80
2023-03-17T13:52:39.861Z,2.20
2023-03-17T13:55:19.274Z,1.43
2023-03-17T13:58:10.949Z,2.40
2023-03-17T14:00:41.757Z,1.97
2023-03-17T14:03:34.198Z,1.30
2023-03-17T14:06:06.099Z,1.77
2023-03-17T14:08:47.644Z,1.33
2023-03-17T14:11:38.015Z,1.57
2023-03-17T14:14:31.105Z,1.30
2023-03-17T14:17:18.237Z,1.90
2023-03-17T14:20:08.626Z,1.90
2023-03-17T14:22:45.576Z,1.80
2023-03-17T14:25:22.595Z,1.90
2023-03-17T14:27:54.326Z,1.73
2023-03-17T14:30:28.402Z,2.07
2023-03-17T14:33:27.526Z,1.57
2023-03-17T14:35:58.612Z,1.17
2023-03-17T14:38:38.057Z,1.80
2023-03-17T14:41:23.581Z,1.50
2023-03-17T14:43:52.622Z,2.03
2023-03-17T14:46:37.525Z,1.73
2023-03-17T14:49:21.585Z,1.70
2023-03-17T14:51:53.687Z,1.53
2023-03-17T14:54:28.049Z,1.40
2023-03-17T14:57:03.342Z,1.13
2023-03-17T14:59:42.121Z,1.40
2023-03-17T15:02:18.116Z,1.60
2023-03-17T15:05:00.161Z,1.60
2023-03-17T15:07:41.835Z,1.90
2023-03-17T15:10:17.828Z,1.80
2023-03-17T15:12:48.952Z,1.57
2023-03-17T15:15:29.130Z,1.77
2023-03-17T15:17:58.766Z,1.20
2023-03-17T15:20:26.098Z,2.23
2023-03-17T15:22:57.937Z,1.80
2023-03-17T15:25:39.375Z,1.70
2023-03-17T15:28:13.616Z,1.80
2023-03-17T15:30:48.178Z,1.07
2023-03-17T15:33:39.683Z,1.90
2023-03-17T15:36:08.191Z,1.20
2023-03-17T15:38:39.045Z,1.63
2023-03-17T15:41:06.312Z,1.50
2023-03-17T15:43:33.438Z,1.93
2023-03-17T15:46:03.964Z,1.83
2023-03-17T15:48:35.359Z,1.97
2023-03-17T15:51:04.834Z,1.33
2023-03-17T15:53:32.311Z,1.97
2023-03-17T15:56:01.013Z,2.30
2023-03-17T15:58:29.141Z,2.77
2023-03-17T16:00:59.738Z,2.07
2023-03-17T16:03:39.572Z,1.77
2023-03-17T16:06:15.730Z,2.40
2023-03-17T16:08:44.714Z,1.50
2023-03-17T16:11:18.159Z,1.70
2023-03-17T16:13:46.438Z,1.87
2023-03-17T16:16:21.779Z,2.70
2023-03-17T16:18:51.257Z,1.43
2023-03-17T16:21:19.421Z,1.73
2023-03-17T16:23:48.475Z,1.97
2023-03-17T16:26:17.088Z,1.90
2023-03-17T16:28:46.116Z,2.10
2023-03-17T16:31:33.802Z,2.67
2023-03-17T16:34:01.031Z,1.83
2023-03-17T16:36:29.332Z,2.20
2023-03-17T16:39:01.865Z,3.17
2023-03-17T16:41:30.695Z,2.43
2023-03-17T16:44:02.442Z,3.20
2023-03-17T16:46:35.384Z,2.60
2023-03-17T16:49:04.286Z,2.90
2023-03-17T16:51:31.337Z,3.07
2023-03-17T16:53:59.771Z,3.03
2023-03-17T16:57:01.211Z,2.93
2023-03-17T17:01:25.232Z,3.23
2023-03-17T17:03:23.312Z,3.23
2023-03-17T17:07:09.783Z,3.30
2023-03-17T17:12:54.826Z,2.27
2023-03-17T17:15:39.425Z,2.97
2023-03-17T17:18:43.309Z,3.87
2023-03-17T17:38:03.820Z,3.90
2023-03-17T17:41:44.014Z,3.00
2023-03-17T17:47:40.468Z,3.37
2023-03-17T17:51:11.145Z,3.10
2023-03-17T17:54:16.703Z,2.80
2023-03-17T17:57:10.348Z,3.17
2023-03-17T17:59:49.170Z,4.00
2023-03-17T18:02:43.810Z,3.23
2023-03-17T18:06:29.577Z,4.17
2023-03-17T18:12:25.063Z,3.30
2023-03-17T18:14:52.236Z,4.43
2023-03-17T18:17:22.075Z,3.63
2023-03-17T18:19:53.063Z,4.57
2023-03-17T18:22:22.037Z,3.97
2023-03-17T18:24:51.743Z,3.77
2023-03-17T18:27:18.811Z,5.17
2023-03-17T18:29:47.796Z,4.00
2023-03-17T18:32:16.261Z,5.13
2023-03-17T18:34:46.410Z,3.50
2023-03-17T18:37:17.619Z,3.90
2023-03-17T18:39:48.434Z,4.43
2023-03-17T18:42:20.365Z,3.67
2023-03-17T18:44:47.323Z,4.60
2023-03-17T18:47:16.425Z,5.03
2023-03-17T18:49:46.038Z,5.00
2023-03-17T18:52:14.109Z,4.73
2023-03-17T18:54:41.456Z,6.23
2023-03-17T18:57:08.800Z,5.10
2023-03-17T18:59:35.908Z,4.93
2023-03-17T19:02:03.389Z,5.57
2023-03-17T19:04:30.741Z,5.73
2023-03-17T19:06:57.812Z,4.17
2023-03-17T19:09:27.879Z,5.03
2023-03-17T19:11:54.880Z,4.10
2023-03-17T19:14:22.244Z,5.63
2023-03-17T19:16:49.408Z,5.60
2023-03-17T19:19:16.576Z,5.27
2023-03-17T19:21:43.783Z,6.30
2023-03-17T19:24:13.601Z,5.80
2023-03-17T19:26:40.639Z,5.87
2023-03-17T19:29:12.121Z,6.37
2023-03-17T19:31:42.842Z,7.40
2023-03-17T19:34:12.518Z,7.03
2023-03-17T19:36:41.129Z,5.27
2023-03-17T19:39:14.104Z,6.47
2023-03-17T19:42:02.709Z,7.30
2023-03-17T19:46:34.761Z,6.80
2023-03-17T19:58:09.330Z,6.17
2023-03-17T20:32:13.556Z,5.53
2023-03-17T20:35:35.973Z,6.03
2023-03-17T20:45:09.602Z,6.30
2023-03-17T20:52:33.648Z,6.90
2023-03-17T21:05:36.883Z,6.33
2023-03-17T21:08:33.682Z,5.57
2023-03-17T21:11:23.368Z,6.20
2023-03-17T21:13:54.653Z,7.73
2023-03-17T21:22:48.738Z,6.17
2023-03-17T21:25:40.783Z,5.83
2023-03-17T21:28:34.727Z,5.07
2023-03-17T21:31:30.732Z,6.47
2023-03-17T21:41:43.980Z,5.77
2023-03-17T21:47:46.707Z,6.43
2023-03-17T21:50:27.990Z,6.93
2023-03-17T21:53:08.531Z,6.53
2023-03-17T21:56:12.332Z,6.97
2023-03-17T22:05:54.672Z,6.23
2023-03-17T22:11:49.080Z,7.07
2023-03-17T22:17:52.362Z,7.53
2023-03-17T22:20:52.913Z,6.90
2023-03-17T22:24:27.775Z,7.70
2023-03-17T22:29:16.124Z,6.67
2023-03-17T22:31:30.647Z,6.77
2023-03-17T22:34:20.192Z,7.33
2023-03-17T22:37:23.272Z,6.53
2023-03-17T22:40:13.074Z,6.57
2023-03-17T22:46:45.519Z,6.80
2023-03-17T22:49:13.226Z,8.20
2023-03-17T22:51:43.427Z,7.57
2023-03-17T22:54:12.311Z,7.27
2023-03-17T22:56:40.269Z,8.47
2023-03-17T22:59:07.550Z,7.77
2023-03-17T23:01:34.686Z,6.77
2023-03-17T23:04:02.493Z,7.57
2023-03-17T23:06:29.893Z,7.33
2023-03-17T23:08:58.081Z,7.60
2023-03-17T23:11:26.609Z,7.60
2023-03-17T23:13:54.690Z,8.00
2023-03-17T23:16:22.373Z,8.17
2023-03-17T23:18:49.833Z,7.40
2023-03-17T23:21:43.405Z,7.20
2023-03-17T23:24:10.713Z,7.73
2023-03-17T23:26:37.894Z,6.40
2023-03-17T23:29:08.628Z,4.73
2023-03-17T23:31:37.165Z,7.50
2023-03-17T23:34:06.737Z,6.93
2023-03-17T23:36:35.365Z,7.60
2023-03-17T23:39:02.784Z,7.47
2023-03-17T23:42:04.964Z,7.07
2023-03-17T23:44:32.019Z,4.87
2023-03-17T23:46:59.444Z,7.47
2023-03-17T23:49:27.601Z,4.70
2023-03-17T23:51:54.806Z,7.30
2023-03-17T23:54:23.029Z,7.57
2023-03-17T23:56:50.255Z,7.90
2023-03-17T23:59:17.408Z,7.67
